sensor_id;sensor_type;location;lat;lon;timestamp;P1;durP1;ratioP1;P2;durP2;ratioP2
16890;SDS011;8562;52.246;20.966;2023-03-03T00:00:05;24.10;;;14.87;;
16890;SDS011;8562;52.246;20.966;2023-03-03T00:02:37;29.40;;;16.40;;
16890;SDS011;8562;52.246;20.966;2023-03-03T00:05:02;23.37;;;14.33;;
16890;SDS011;8562;52.246;20.966;2023-03-03T00:07:28;28.40;;;15.77;;
16890;SDS011;8562;52.246;20.966;2023-03-03T00:09:53;31.63;;;17.13;;
16890;SDS011;8562;52.246;20.966;2023-03-03T00:14:44;24.40;;;14.30;;
16890;SDS011;8562;52.246;20.966;2023-03-03T00:17:14;26.83;;;13.87;;
16890;SDS011;8562;52.246;20.966;2023-03-03T00:19:44;30.40;;;18.47;;
16890;SDS011;8562;52.246;20.966;2023-03-03T00:22:30;27.77;;;14.70;;
16890;SDS011;8562;52.246;20.966;2023-03-03T00:24:58;25.87;;;13.50;;
16890;SDS011;8562;52.246;20.966;2023-03-03T00:29:52;29.33;;;15.27;;
16890;SDS011;8562;52.246;20.966;2023-03-03T00:32:37;32.80;;;18.03;;
16890;SDS011;8562;52.246;20.966;2023-03-03T00:37:54;27.47;;;15.73;;
16890;SDS011;8562;52.246;20.966;2023-03-03T00:42:50;32.13;;;14.23;;
16890;SDS011;8562;52.246;20.966;2023-03-03T00:47:47;26.47;;;15.43;;
16890;SDS011;8562;52.246;20.966;2023-03-03T00:50:24;24.33;;;13.87;;
16890;SDS011;8562;52.246;20.966;2023-03-03T00:55:19;24.20;;;15.03;;
16890;SDS011;8562;52.246;20.966;2023-03-03T00:57:44;20.00;;;13.17;;
16890;SDS011;8562;52.246;20.966;2023-03-03T01:00:10;25.63;;;15.53;;
16890;SDS011;8562;52.246;20.966;2023-03-03T01:02:37;28.03;;;13.97;;
16890;SDS011;8562;52.246;20.966;2023-03-03T01:05:02;29.13;;;15.23;;
16890;SDS011;8562;52.246;20.966;2023-03-03T01:07:28;20.20;;;13.07;;
16890;SDS011;8562;52.246;20.966;2023-03-03T01:09:53;30.07;;;13.50;;
16890;SDS011;8562;52.246;20.966;2023-03-03T01:12:19;24.70;;;14.87;;
16890;SDS011;8562;52.246;20.966;2023-03-03T01:14:44;24.83;;;14.60;;
16890;SDS011;8562;52.246;20.966;2023-03-03T01:17:11;25.63;;;13.73;;
16890;SDS011;8562;52.246;20.966;2023-03-03T01:19:36;27.43;;;14.07;;
16890;SDS011;8562;52.246;20.966;2023-03-03T01:22:01;25.23;;;13.83;;
16890;SDS011;8562;52.246;20.966;2023-03-03T01:24:27;21.00;;;11.90;;
16890;SDS011;8562;52.246;20.966;2023-03-03T01:26:52;26.03;;;11.67;;
16890;SDS011;8562;52.246;20.966;2023-03-03T01:29:18;30.90;;;13.50;;
16890;SDS011;8562;52.246;20.966;2023-03-03T01:31:43;24.93;;;12.07;;
16890;SDS011;8562;52.246;20.966;2023-03-03T01:34:09;29.03;;;14.90;;
16890;SDS011;8562;52.246;20.966;2023-03-03T01:36:34;22.87;;;12.97;;
16890;SDS011;8562;52.246;20.966;2023-03-03T01:39:01;23.73;;;12.53;;
16890;SDS011;8562;52.246;20.966;2023-03-03T01:41:26;21.60;;;12.57;;
16890;SDS011;8562;52.246;20.966;2023-03-03T01:43:54;20.47;;;12.13;;
16890;SDS011;8562;52.246;20.966;2023-03-03T01:48:45;20.57;;;12.77;;
16890;SDS011;8562;52.246;20.966;2023-03-03T01:53:43;23.93;;;12.53;;
16890;SDS011;8562;52.246;20.966;2023-03-03T01:56:09;35.63;;;16.37;;
16890;SDS011;8562;52.246;20.966;2023-03-03T01:58:40;20.43;;;11.93;;
16890;SDS011;8562;52.246;20.966;2023-03-03T02:01:11;27.13;;;12.73;;
16890;SDS011;8562;52.246;20.966;2023-03-03T02:03:38;20.43;;;12.73;;
16890;SDS011;8562;52.246;20.966;2023-03-03T02:06:05;27.47;;;12.27;;
16890;SDS011;8562;52.246;20.966;2023-03-03T02:09:33;27.10;;;12.67;;
16890;SDS011;8562;52.246;20.966;2023-03-03T02:11:25;24.03;;;12.80;;
16890;SDS011;8562;52.246;20.966;2023-03-03T02:13:52;19.73;;;13.03;;
16890;SDS011;8562;52.246;20.966;2023-03-03T02:16:17;19.73;;;12.33;;
16890;SDS011;8562;52.246;20.966;2023-03-03T02:18:43;24.00;;;13.27;;
16890;SDS011;8562;52.246;20.966;2023-03-03T02:21:13;20.23;;;11.63;;
16890;SDS011;8562;52.246;20.966;2023-03-03T02:26:06;20.50;;;12.20;;
16890;SDS011;8562;52.246;20.966;2023-03-03T02:28:33;21.07;;;10.97;;
16890;SDS011;8562;52.246;20.966;2023-03-03T02:31:04;22.00;;;12.80;;
16890;SDS011;8562;52.246;20.966;2023-03-03T02:33:30;24.83;;;13.27;;
16890;SDS011;8562;52.246;20.966;2023-03-03T02:35:55;20.33;;;12.97;;
16890;SDS011;8562;52.246;20.966;2023-03-03T02:38:25;26.57;;;13.77;;
16890;SDS011;8562;52.246;20.966;2023-03-03T02:43:37;21.23;;;11.87;;
16890;SDS011;8562;52.246;20.966;2023-03-03T02:46:03;23.17;;;15.00;;
16890;SDS011;8562;52.246;20.966;2023-03-03T02:48:29;22.23;;;13.40;;
16890;SDS011;8562;52.246;20.966;2023-03-03T02:50:54;30.80;;;13.43;;
16890;SDS011;8562;52.246;20.966;2023-03-03T02:53:19;25.67;;;14.30;;
16890;SDS011;8562;52.246;20.966;2023-03-03T02:55:45;18.50;;;12.33;;
16890;SDS011;8562;52.246;20.966;2023-03-03T02:58:11;22.07;;;16.17;;
16890;SDS011;8562;52.246;20.966;2023-03-03T03:00:36;21.87;;;14.33;;
16890;SDS011;8562;52.246;20.966;2023-03-03T03:03:02;22.73;;;13.17;;
16890;SDS011;8562;52.246;20.966;2023-03-03T03:05:28;22.73;;;12.07;;
16890;SDS011;8562;52.246;20.966;2023-03-03T03:07:53;19.83;;;12.87;;
16890;SDS011;8562;52.246;20.966;2023-03-03T03:10:19;19.57;;;11.37;;
16890;SDS011;8562;52.246;20.966;2023-03-03T03:12:45;22.50;;;12.07;;
16890;SDS011;8562;52.246;20.966;2023-03-03T03:15:11;21.83;;;13.40;;
16890;SDS011;8562;52.246;20.966;2023-03-03T03:17:37;19.83;;;12.40;;
16890;SDS011;8562;52.246;20.966;2023-03-03T03:20:03;19.73;;;12.03;;
16890;SDS011;8562;52.246;20.966;2023-03-03T03:22:29;21.23;;;11.80;;
16890;SDS011;8562;52.246;20.966;2023-03-03T03:24:54;23.90;;;11.97;;
16890;SDS011;8562;52.246;20.966;2023-03-03T03:27:20;28.83;;;13.57;;
16890;SDS011;8562;52.246;20.966;2023-03-03T03:29:46;19.00;;;11.00;;
16890;SDS011;8562;52.246;20.966;2023-03-03T03:32:11;28.13;;;12.97;;
16890;SDS011;8562;52.246;20.966;2023-03-03T03:34:37;24.60;;;12.03;;
16890;SDS011;8562;52.246;20.966;2023-03-03T03:37:04;24.50;;;14.10;;
16890;SDS011;8562;52.246;20.966;2023-03-03T03:39:29;21.43;;;13.50;;
16890;SDS011;8562;52.246;20.966;2023-03-03T03:41:55;23.77;;;12.73;;
16890;SDS011;8562;52.246;20.966;2023-03-03T03:44:20;20.73;;;12.70;;
16890;SDS011;8562;52.246;20.966;2023-03-03T03:46:48;27.33;;;11.10;;
16890;SDS011;8562;52.246;20.966;2023-03-03T03:49:14;24.57;;;14.33;;
16890;SDS011;8562;52.246;20.966;2023-03-03T03:51:40;24.83;;;11.50;;
16890;SDS011;8562;52.246;20.966;2023-03-03T03:54:08;18.23;;;11.27;;
16890;SDS011;8562;52.246;20.966;2023-03-03T03:56:35;27.40;;;12.93;;
16890;SDS011;8562;52.246;20.966;2023-03-03T03:59:01;21.23;;;14.83;;
16890;SDS011;8562;52.246;20.966;2023-03-03T04:01:26;23.80;;;11.63;;
16890;SDS011;8562;52.246;20.966;2023-03-03T04:03:53;20.53;;;11.10;;
16890;SDS011;8562;52.246;20.966;2023-03-03T04:06:22;23.60;;;14.33;;
16890;SDS011;8562;52.246;20.966;2023-03-03T04:08:47;27.60;;;13.20;;
16890;SDS011;8562;52.246;20.966;2023-03-03T04:11:14;29.00;;;13.40;;
16890;SDS011;8562;52.246;20.966;2023-03-03T04:13:40;28.27;;;13.77;;
16890;SDS011;8562;52.246;20.966;2023-03-03T04:16:07;33.07;;;13.50;;
16890;SDS011;8562;52.246;20.966;2023-03-03T04:18:34;18.73;;;12.37;;
16890;SDS011;8562;52.246;20.966;2023-03-03T04:20:59;21.60;;;11.67;;
16890;SDS011;8562;52.246;20.966;2023-03-03T04:23:26;18.90;;;11.47;;
16890;SDS011;8562;52.246;20.966;2023-03-03T04:25:52;24.20;;;14.10;;
16890;SDS011;8562;52.246;20.966;2023-03-03T04:28:17;26.97;;;14.50;;
16890;SDS011;8562;52.246;20.966;2023-03-03T04:30:44;25.77;;;10.97;;
16890;SDS011;8562;52.246;20.966;2023-03-03T04:33:09;26.00;;;12.97;;
16890;SDS011;8562;52.246;20.966;2023-03-03T04:35:37;24.97;;;11.10;;
16890;SDS011;8562;52.246;20.966;2023-03-03T04:38:02;24.43;;;11.77;;
16890;SDS011;8562;52.246;20.966;2023-03-03T04:40:29;22.00;;;13.00;;
16890;SDS011;8562;52.246;20.966;2023-03-03T04:42:55;28.77;;;13.53;;
16890;SDS011;8562;52.246;20.966;2023-03-03T04:45:20;27.03;;;13.80;;
16890;SDS011;8562;52.246;20.966;2023-03-03T04:47:47;20.73;;;13.50;;
16890;SDS011;8562;52.246;20.966;2023-03-03T04:50:13;25.13;;;15.10;;
16890;SDS011;8562;52.246;20.966;2023-03-03T04:52:39;21.37;;;14.37;;
16890;SDS011;8562;52.246;20.966;2023-03-03T04:55:06;22.90;;;13.07;;
16890;SDS011;8562;52.246;20.966;2023-03-03T04:57:32;23.57;;;14.37;;
16890;SDS011;8562;52.246;20.966;2023-03-03T04:59:58;26.53;;;15.90;;
16890;SDS011;8562;52.246;20.966;2023-03-03T05:02:23;22.23;;;12.97;;
16890;SDS011;8562;52.246;20.966;2023-03-03T05:04:49;23.70;;;12.70;;
16890;SDS011;8562;52.246;20.966;2023-03-03T05:07:14;25.90;;;15.67;;
16890;SDS011;8562;52.246;20.966;2023-03-03T05:09:39;27.50;;;14.37;;
16890;SDS011;8562;52.246;20.966;2023-03-03T05:12:05;24.80;;;12.17;;
16890;SDS011;8562;52.246;20.966;2023-03-03T05:14:30;24.73;;;14.50;;
16890;SDS011;8562;52.246;20.966;2023-03-03T05:16:56;28.40;;;13.27;;
16890;SDS011;8562;52.246;20.966;2023-03-03T05:19:21;27.13;;;16.77;;
16890;SDS011;8562;52.246;20.966;2023-03-03T05:21:46;35.33;;;15.10;;
16890;SDS011;8562;52.246;20.966;2023-03-03T05:24:12;29.87;;;14.97;;
16890;SDS011;8562;52.246;20.966;2023-03-03T05:26:38;20.53;;;12.60;;
16890;SDS011;8562;52.246;20.966;2023-03-03T05:29:03;27.60;;;15.37;;
16890;SDS011;8562;52.246;20.966;2023-03-03T05:31:28;28.40;;;16.37;;
16890;SDS011;8562;52.246;20.966;2023-03-03T05:33:54;37.57;;;18.30;;
16890;SDS011;8562;52.246;20.966;2023-03-03T05:36:20;27.00;;;14.90;;
16890;SDS011;8562;52.246;20.966;2023-03-03T05:38:45;29.53;;;15.37;;
16890;SDS011;8562;52.246;20.966;2023-03-03T05:41:10;29.43;;;14.03;;
16890;SDS011;8562;52.246;20.966;2023-03-03T05:43:36;30.13;;;16.70;;
16890;SDS011;8562;52.246;20.966;2023-03-03T05:46:01;34.40;;;16.53;;
16890;SDS011;8562;52.246;20.966;2023-03-03T05:48:27;39.23;;;20.07;;
16890;SDS011;8562;52.246;20.966;2023-03-03T05:50:52;33.33;;;16.47;;
16890;SDS011;8562;52.246;20.966;2023-03-03T05:53:17;34.10;;;16.97;;
16890;SDS011;8562;52.246;20.966;2023-03-03T05:55:43;29.67;;;15.00;;
16890;SDS011;8562;52.246;20.966;2023-03-03T05:58:08;30.43;;;17.33;;
16890;SDS011;8562;52.246;20.966;2023-03-03T06:00:34;32.23;;;15.70;;
16890;SDS011;8562;52.246;20.966;2023-03-03T06:02:59;41.27;;;17.03;;
16890;SDS011;8562;52.246;20.966;2023-03-03T06:05:24;38.37;;;17.20;;
16890;SDS011;8562;52.246;20.966;2023-03-03T06:07:50;36.50;;;17.07;;
16890;SDS011;8562;52.246;20.966;2023-03-03T06:10:15;34.80;;;17.63;;
16890;SDS011;8562;52.246;20.966;2023-03-03T06:12:44;33.97;;;16.37;;
16890;SDS011;8562;52.246;20.966;2023-03-03T06:15:10;26.57;;;14.67;;
16890;SDS011;8562;52.246;20.966;2023-03-03T06:17:35;38.17;;;17.13;;
16890;SDS011;8562;52.246;20.966;2023-03-03T06:20:00;28.37;;;16.50;;
16890;SDS011;8562;52.246;20.966;2023-03-03T06:22:26;36.17;;;18.63;;
16890;SDS011;8562;52.246;20.966;2023-03-03T06:24:52;34.80;;;17.40;;
16890;SDS011;8562;52.246;20.966;2023-03-03T06:27:17;31.13;;;17.33;;
16890;SDS011;8562;52.246;20.966;2023-03-03T06:29:43;31.47;;;18.13;;
16890;SDS011;8562;52.246;20.966;2023-03-03T06:32:08;35.37;;;16.60;;
16890;SDS011;8562;52.246;20.966;2023-03-03T06:34:34;45.53;;;18.57;;
16890;SDS011;8562;52.246;20.966;2023-03-03T06:36:59;29.63;;;16.87;;
16890;SDS011;8562;52.246;20.966;2023-03-03T06:39:25;37.03;;;17.70;;
16890;SDS011;8562;52.246;20.966;2023-03-03T06:41:50;33.10;;;15.07;;
16890;SDS011;8562;52.246;20.966;2023-03-03T06:44:15;33.87;;;16.23;;
16890;SDS011;8562;52.246;20.966;2023-03-03T06:46:41;32.13;;;15.97;;
16890;SDS011;8562;52.246;20.966;2023-03-03T06:49:06;24.40;;;14.43;;
16890;SDS011;8562;52.246;20.966;2023-03-03T06:51:32;26.67;;;13.67;;
16890;SDS011;8562;52.246;20.966;2023-03-03T06:54:01;31.97;;;15.47;;
16890;SDS011;8562;52.246;20.966;2023-03-03T06:56:26;28.87;;;14.67;;
16890;SDS011;8562;52.246;20.966;2023-03-03T06:58:53;23.83;;;11.47;;
16890;SDS011;8562;52.246;20.966;2023-03-03T07:01:18;21.97;;;13.33;;
16890;SDS011;8562;52.246;20.966;2023-03-03T07:03:44;20.60;;;11.20;;
16890;SDS011;8562;52.246;20.966;2023-03-03T07:06:18;17.80;;;11.10;;
16890;SDS011;8562;52.246;20.966;2023-03-03T07:08:44;17.43;;;9.90;;
16890;SDS011;8562;52.246;20.966;2023-03-03T07:11:11;19.50;;;11.70;;
16890;SDS011;8562;52.246;20.966;2023-03-03T07:13:39;22.27;;;12.60;;
16890;SDS011;8562;52.246;20.966;2023-03-03T07:16:09;18.60;;;10.23;;
16890;SDS011;8562;52.246;20.966;2023-03-03T07:18:49;21.53;;;11.47;;
16890;SDS011;8562;52.246;20.966;2023-03-03T07:21:21;18.67;;;9.87;;
16890;SDS011;8562;52.246;20.966;2023-03-03T07:23:50;25.70;;;11.43;;
16890;SDS011;8562;52.246;20.966;2023-03-03T07:26:17;25.83;;;11.77;;
16890;SDS011;8562;52.246;20.966;2023-03-03T07:28:43;16.50;;;10.20;;
16890;SDS011;8562;52.246;20.966;2023-03-03T07:31:25;22.10;;;11.27;;
16890;SDS011;8562;52.246;20.966;2023-03-03T07:33:51;21.90;;;13.80;;
16890;SDS011;8562;52.246;20.966;2023-03-03T07:36:21;20.37;;;11.77;;
16890;SDS011;8562;52.246;20.966;2023-03-03T07:38:52;21.60;;;10.87;;
16890;SDS011;8562;52.246;20.966;2023-03-03T07:41:18;22.40;;;11.23;;
16890;SDS011;8562;52.246;20.966;2023-03-03T07:43:51;22.77;;;10.20;;
16890;SDS011;8562;52.246;20.966;2023-03-03T07:46:26;21.57;;;11.93;;
16890;SDS011;8562;52.246;20.966;2023-03-03T07:48:52;27.00;;;11.37;;
16890;SDS011;8562;52.246;20.966;2023-03-03T07:51:20;23.90;;;13.17;;
16890;SDS011;8562;52.246;20.966;2023-03-03T07:53:53;24.30;;;11.30;;
16890;SDS011;8562;52.246;20.966;2023-03-03T07:56:26;24.17;;;10.83;;
16890;SDS011;8562;52.246;20.966;2023-03-03T07:58:52;22.97;;;12.93;;
16890;SDS011;8562;52.246;20.966;2023-03-03T08:03:45;21.23;;;11.43;;
16890;SDS011;8562;52.246;20.966;2023-03-03T08:06:30;22.40;;;11.70;;
16890;SDS011;8562;52.246;20.966;2023-03-03T08:11:56;22.60;;;9.80;;
16890;SDS011;8562;52.246;20.966;2023-03-03T08:14:41;19.50;;;10.37;;
16890;SDS011;8562;52.246;20.966;2023-03-03T08:17:08;25.27;;;10.43;;
16890;SDS011;8562;52.246;20.966;2023-03-03T08:19:38;23.27;;;11.23;;
16890;SDS011;8562;52.246;20.966;2023-03-03T08:22:13;26.43;;;10.37;;
16890;SDS011;8562;52.246;20.966;2023-03-03T08:24:39;21.37;;;10.43;;
16890;SDS011;8562;52.246;20.966;2023-03-03T08:27:05;21.73;;;11.47;;
16890;SDS011;8562;52.246;20.966;2023-03-03T08:29:30;29.10;;;11.93;;
16890;SDS011;8562;52.246;20.966;2023-03-03T08:31:55;21.60;;;10.43;;
16890;SDS011;8562;52.246;20.966;2023-03-03T08:34:20;17.53;;;9.83;;
16890;SDS011;8562;52.246;20.966;2023-03-03T08:36:46;16.87;;;10.00;;
16890;SDS011;8562;52.246;20.966;2023-03-03T08:39:11;24.50;;;13.00;;
16890;SDS011;8562;52.246;20.966;2023-03-03T08:41:37;20.70;;;10.63;;
16890;SDS011;8562;52.246;20.966;2023-03-03T08:44:04;26.93;;;11.77;;
16890;SDS011;8562;52.246;20.966;2023-03-03T08:46:30;21.13;;;12.67;;
16890;SDS011;8562;52.246;20.966;2023-03-03T08:48:55;18.33;;;9.93;;
16890;SDS011;8562;52.246;20.966;2023-03-03T08:51:20;15.80;;;8.43;;
16890;SDS011;8562;52.246;20.966;2023-03-03T08:53:45;26.30;;;12.53;;
16890;SDS011;8562;52.246;20.966;2023-03-03T08:56:11;22.83;;;11.53;;
16890;SDS011;8562;52.246;20.966;2023-03-03T08:58:36;20.47;;;9.53;;
16890;SDS011;8562;52.246;20.966;2023-03-03T09:01:02;18.90;;;10.40;;
16890;SDS011;8562;52.246;20.966;2023-03-03T09:03:27;25.63;;;12.00;;
16890;SDS011;8562;52.246;20.966;2023-03-03T09:05:53;25.53;;;11.37;;
16890;SDS011;8562;52.246;20.966;2023-03-03T09:08:19;24.87;;;11.40;;
16890;SDS011;8562;52.246;20.966;2023-03-03T09:10:44;18.87;;;9.50;;
16890;SDS011;8562;52.246;20.966;2023-03-03T09:13:13;26.50;;;12.23;;
16890;SDS011;8562;52.246;20.966;2023-03-03T09:15:39;17.03;;;9.07;;
16890;SDS011;8562;52.246;20.966;2023-03-03T09:20:39;20.50;;;10.70;;
16890;SDS011;8562;52.246;20.966;2023-03-03T09:23:24;20.27;;;10.50;;
16890;SDS011;8562;52.246;20.966;2023-03-03T09:25:51;16.77;;;9.33;;
16890;SDS011;8562;52.246;20.966;2023-03-03T09:28:27;23.17;;;11.60;;
16890;SDS011;8562;52.246;20.966;2023-03-03T09:30:53;23.10;;;10.60;;
16890;SDS011;8562;52.246;20.966;2023-03-03T09:33:39;17.67;;;10.50;;
16890;SDS011;8562;52.246;20.966;2023-03-03T09:38:34;20.83;;;10.07;;
16890;SDS011;8562;52.246;20.966;2023-03-03T09:41:18;20.40;;;9.60;;
16890;SDS011;8562;52.246;20.966;2023-03-03T09:48:53;21.27;;;10.77;;
16890;SDS011;8562;52.246;20.966;2023-03-03T09:51:37;26.37;;;11.10;;
16890;SDS011;8562;52.246;20.966;2023-03-03T09:57:03;16.27;;;8.83;;
16890;SDS011;8562;52.246;20.966;2023-03-03T10:02:25;16.77;;;8.53;;
16890;SDS011;8562;52.246;20.966;2023-03-03T10:07:26;13.60;;;8.13;;
16890;SDS011;8562;52.246;20.966;2023-03-03T10:12:42;19.77;;;10.97;;
16890;SDS011;8562;52.246;20.966;2023-03-03T10:17:51;17.53;;;9.00;;
16890;SDS011;8562;52.246;20.966;2023-03-03T10:40:37;15.23;;;9.73;;
16890;SDS011;8562;52.246;20.966;2023-03-03T10:43:10;18.03;;;8.90;;
16890;SDS011;8562;52.246;20.966;2023-03-03T10:45:56;22.30;;;9.17;;
16890;SDS011;8562;52.246;20.966;2023-03-03T10:48:31;18.70;;;8.03;;
16890;SDS011;8562;52.246;20.966;2023-03-03T10:51:04;15.93;;;8.33;;
16890;SDS011;8562;52.246;20.966;2023-03-03T10:53:40;16.30;;;9.27;;
16890;SDS011;8562;52.246;20.966;2023-03-03T10:58:49;14.03;;;7.90;;
16890;SDS011;8562;52.246;20.966;2023-03-03T11:07:01;18.37;;;8.07;;
16890;SDS011;8562;52.246;20.966;2023-03-03T11:14:44;10.03;;;7.67;;
16890;SDS011;8562;52.246;20.966;2023-03-03T11:24:51;13.33;;;8.17;;
16890;SDS011;8562;52.246;20.966;2023-03-03T11:32:47;12.07;;;8.50;;
16890;SDS011;8562;52.246;20.966;2023-03-03T11:35:25;14.93;;;7.07;;
16890;SDS011;8562;52.246;20.966;2023-03-03T11:40:21;15.30;;;8.00;;
16890;SDS011;8562;52.246;20.966;2023-03-03T11:43:00;12.97;;;7.27;;
16890;SDS011;8562;52.246;20.966;2023-03-03T11:45:46;14.30;;;9.10;;
16890;SDS011;8562;52.246;20.966;2023-03-03T11:48:15;12.83;;;9.10;;
16890;SDS011;8562;52.246;20.966;2023-03-03T11:50:45;15.13;;;7.17;;
16890;SDS011;8562;52.246;20.966;2023-03-03T11:53:26;13.73;;;8.63;;
16890;SDS011;8562;52.246;20.966;2023-03-03T11:55:55;18.97;;;9.67;;
16890;SDS011;8562;52.246;20.966;2023-03-03T11:58:26;15.53;;;9.13;;
16890;SDS011;8562;52.246;20.966;2023-03-03T12:08:26;19.93;;;9.63;;
16890;SDS011;8562;52.246;20.966;2023-03-03T12:13:29;13.63;;;8.00;;
16890;SDS011;8562;52.246;20.966;2023-03-03T12:20:58;20.07;;;7.40;;
16890;SDS011;8562;52.246;20.966;2023-03-03T12:29:06;11.43;;;7.67;;
16890;SDS011;8562;52.246;20.966;2023-03-03T12:31:43;13.43;;;7.10;;
16890;SDS011;8562;52.246;20.966;2023-03-03T12:34:13;12.10;;;7.07;;
16890;SDS011;8562;52.246;20.966;2023-03-03T12:39:28;15.33;;;7.50;;
16890;SDS011;8562;52.246;20.966;2023-03-03T12:41:52;12.93;;;6.30;;
16890;SDS011;8562;52.246;20.966;2023-03-03T12:49:19;13.97;;;7.13;;
16890;SDS011;8562;52.246;20.966;2023-03-03T12:56:47;13.23;;;6.47;;
16890;SDS011;8562;52.246;20.966;2023-03-03T12:59:18;11.97;;;7.43;;
16890;SDS011;8562;52.246;20.966;2023-03-03T13:04:30;12.20;;;6.77;;
16890;SDS011;8562;52.246;20.966;2023-03-03T13:17:30;12.37;;;6.80;;
16890;SDS011;8562;52.246;20.966;2023-03-03T13:19:57;20.77;;;9.20;;
16890;SDS011;8562;52.246;20.966;2023-03-03T13:22:31;16.20;;;7.37;;
16890;SDS011;8562;52.246;20.966;2023-03-03T13:27:27;14.07;;;8.83;;
16890;SDS011;8562;52.246;20.966;2023-03-03T13:29:57;11.37;;;6.17;;
16890;SDS011;8562;52.246;20.966;2023-03-03T13:32:34;14.47;;;8.53;;
16890;SDS011;8562;52.246;20.966;2023-03-03T13:40:27;10.17;;;6.40;;
16890;SDS011;8562;52.246;20.966;2023-03-03T13:43:31;11.87;;;7.57;;
16890;SDS011;8562;52.246;20.966;2023-03-03T14:01:54;15.50;;;7.97;;
16890;SDS011;8562;52.246;20.966;2023-03-03T14:07:17;8.53;;;5.07;;
16890;SDS011;8562;52.246;20.966;2023-03-03T14:10:07;20.80;;;7.97;;
16890;SDS011;8562;52.246;20.966;2023-03-03T14:15:10;13.30;;;7.67;;
16890;SDS011;8562;52.246;20.966;2023-03-03T14:22:39;12.60;;;7.17;;
16890;SDS011;8562;52.246;20.966;2023-03-03T14:25:10;16.80;;;6.90;;
16890;SDS011;8562;52.246;20.966;2023-03-03T14:27:38;11.20;;;6.13;;
16890;SDS011;8562;52.246;20.966;2023-03-03T14:32:58;8.93;;;5.43;;
16890;SDS011;8562;52.246;20.966;2023-03-03T14:35:24;9.13;;;7.13;;
16890;SDS011;8562;52.246;20.966;2023-03-03T14:37:53;12.00;;;6.30;;
16890;SDS011;8562;52.246;20.966;2023-03-03T14:40:32;12.77;;;6.90;;
16890;SDS011;8562;52.246;20.966;2023-03-03T14:43:02;14.90;;;7.40;;
16890;SDS011;8562;52.246;20.966;2023-03-03T14:45:36;17.93;;;8.00;;
16890;SDS011;8562;52.246;20.966;2023-03-03T14:48:07;14.23;;;7.17;;
16890;SDS011;8562;52.246;20.966;2023-03-03T14:50:38;15.87;;;7.70;;
16890;SDS011;8562;52.246;20.966;2023-03-03T14:53:14;17.17;;;7.20;;
16890;SDS011;8562;52.246;20.966;2023-03-03T14:55:45;23.57;;;8.03;;
16890;SDS011;8562;52.246;20.966;2023-03-03T15:00:48;12.13;;;5.47;;
16890;SDS011;8562;52.246;20.966;2023-03-03T15:03:21;13.30;;;5.97;;
16890;SDS011;8562;52.246;20.966;2023-03-03T15:05:51;14.03;;;8.97;;
16890;SDS011;8562;52.246;20.966;2023-03-03T15:08:22;9.60;;;5.20;;
16890;SDS011;8562;52.246;20.966;2023-03-03T15:10:48;10.20;;;6.47;;
16890;SDS011;8562;52.246;20.966;2023-03-03T15:18:23;11.40;;;7.03;;
16890;SDS011;8562;52.246;20.966;2023-03-03T15:21:30;9.17;;;5.27;;
16890;SDS011;8562;52.246;20.966;2023-03-03T15:23:43;10.17;;;5.80;;
16890;SDS011;8562;52.246;20.966;2023-03-03T15:33:58;11.73;;;4.47;;
16890;SDS011;8562;52.246;20.966;2023-03-03T15:44:38;6.00;;;3.93;;
16890;SDS011;8562;52.246;20.966;2023-03-03T16:02:57;10.33;;;5.27;;
16890;SDS011;8562;52.246;20.966;2023-03-03T16:08:16;11.20;;;6.67;;
16890;SDS011;8562;52.246;20.966;2023-03-03T16:10:52;10.63;;;5.80;;
16890;SDS011;8562;52.246;20.966;2023-03-03T16:16:10;6.83;;;6.07;;
16890;SDS011;8562;52.246;20.966;2023-03-03T16:23:56;8.03;;;5.53;;
16890;SDS011;8562;52.246;20.966;2023-03-03T16:26:30;11.70;;;6.77;;
16890;SDS011;8562;52.246;20.966;2023-03-03T16:29:05;9.77;;;5.30;;
16890;SDS011;8562;52.246;20.966;2023-03-03T16:32:07;7.47;;;4.93;;
16890;SDS011;8562;52.246;20.966;2023-03-03T16:34:38;10.53;;;8.03;;
16890;SDS011;8562;52.246;20.966;2023-03-03T16:39:52;12.97;;;7.90;;
16890;SDS011;8562;52.246;20.966;2023-03-03T16:47:36;11.33;;;6.07;;
16890;SDS011;8562;52.246;20.966;2023-03-03T16:53:22;8.80;;;6.10;;
16890;SDS011;8562;52.246;20.966;2023-03-03T16:55:24;10.27;;;7.03;;
16890;SDS011;8562;52.246;20.966;2023-03-03T17:14:19;8.67;;;7.00;;
16890;SDS011;8562;52.246;20.966;2023-03-03T17:17:30;10.13;;;6.07;;
16890;SDS011;8562;52.246;20.966;2023-03-03T17:22:13;9.43;;;6.20;;
16890;SDS011;8562;52.246;20.966;2023-03-03T17:27:24;7.80;;;5.97;;
16890;SDS011;8562;52.246;20.966;2023-03-03T17:32:32;8.20;;;4.77;;
16890;SDS011;8562;52.246;20.966;2023-03-03T17:45:12;9.20;;;6.13;;
16890;SDS011;8562;52.246;20.966;2023-03-03T17:55:21;9.03;;;4.80;;
16890;SDS011;8562;52.246;20.966;2023-03-03T17:57:51;10.17;;;5.83;;
16890;SDS011;8562;52.246;20.966;2023-03-03T18:00:24;10.07;;;5.03;;
16890;SDS011;8562;52.246;20.966;2023-03-03T18:15:46;18.97;;;7.47;;
16890;SDS011;8562;52.246;20.966;2023-03-03T18:18:40;7.83;;;6.13;;
16890;SDS011;8562;52.246;20.966;2023-03-03T18:23:43;11.57;;;7.30;;
16890;SDS011;8562;52.246;20.966;2023-03-03T18:26:30;12.13;;;5.80;;
16890;SDS011;8562;52.246;20.966;2023-03-03T18:29:08;12.63;;;5.63;;
16890;SDS011;8562;52.246;20.966;2023-03-03T18:36:52;8.53;;;5.47;;
16890;SDS011;8562;52.246;20.966;2023-03-03T18:39:34;10.73;;;6.47;;
16890;SDS011;8562;52.246;20.966;2023-03-03T18:42:10;10.60;;;6.23;;
16890;SDS011;8562;52.246;20.966;2023-03-03T18:44:36;13.23;;;8.20;;
16890;SDS011;8562;52.246;20.966;2023-03-03T18:47:01;12.70;;;7.93;;
16890;SDS011;8562;52.246;20.966;2023-03-03T18:52:21;11.27;;;6.20;;
16890;SDS011;8562;52.246;20.966;2023-03-03T18:57:27;11.30;;;6.57;;
16890;SDS011;8562;52.246;20.966;2023-03-03T18:59:56;8.63;;;6.00;;
16890;SDS011;8562;52.246;20.966;2023-03-03T19:02:35;9.93;;;6.50;;
16890;SDS011;8562;52.246;20.966;2023-03-03T19:05:14;8.03;;;6.87;;
16890;SDS011;8562;52.246;20.966;2023-03-03T19:12:54;11.33;;;6.53;;
16890;SDS011;8562;52.246;20.966;2023-03-03T19:18:04;10.20;;;5.80;;
16890;SDS011;8562;52.246;20.966;2023-03-03T19:20:41;9.80;;;6.83;;
16890;SDS011;8562;52.246;20.966;2023-03-03T19:23:11;13.37;;;8.47;;
16890;SDS011;8562;52.246;20.966;2023-03-03T19:25:37;9.73;;;6.60;;
16890;SDS011;8562;52.246;20.966;2023-03-03T19:41:11;12.17;;;7.07;;
16890;SDS011;8562;52.246;20.966;2023-03-03T19:43:50;15.70;;;7.43;;
16890;SDS011;8562;52.246;20.966;2023-03-03T19:48:53;12.03;;;7.30;;
16890;SDS011;8562;52.246;20.966;2023-03-03T19:54:13;9.83;;;6.23;;
16890;SDS011;8562;52.246;20.966;2023-03-03T19:56:51;11.63;;;6.93;;
16890;SDS011;8562;52.246;20.966;2023-03-03T20:04:33;13.07;;;7.67;;
16890;SDS011;8562;52.246;20.966;2023-03-03T20:14:30;15.60;;;5.83;;
16890;SDS011;8562;52.246;20.966;2023-03-03T20:17:04;9.37;;;6.07;;
16890;SDS011;8562;52.246;20.966;2023-03-03T20:19:49;12.00;;;5.80;;
16890;SDS011;8562;52.246;20.966;2023-03-03T20:28:10;15.37;;;7.53;;
16890;SDS011;8562;52.246;20.966;2023-03-03T20:32:59;9.20;;;6.97;;
16890;SDS011;8562;52.246;20.966;2023-03-03T20:48:30;15.40;;;7.53;;
16890;SDS011;8562;52.246;20.966;2023-03-03T21:01:39;14.40;;;8.97;;
16890;SDS011;8562;52.246;20.966;2023-03-03T21:04:18;8.93;;;6.53;;
16890;SDS011;8562;52.246;20.966;2023-03-03T21:06:43;12.50;;;6.73;;